createdAt,value
2023-04-20T00:01:27.552Z,98663.97
2023-04-20T00:03:54.462Z,98654.44
2023-04-20T00:06:22.049Z,98662.25
2023-04-20T00:08:48.877Z,98657.06
2023-04-20T00:11:15.678Z,98657.91
2023-04-20T00:13:42.257Z,98658.78
2023-04-20T00:16:08.854Z,98650.06
2023-04-20T00:18:35.438Z,98646.56
2023-04-20T00:21:02.299Z,98650.03
2023-04-20T00:23:28.997Z,98646.56
2023-04-20T00:25:55.964Z,98634.41
2023-04-20T00:28:22.869Z,98643.94
2023-04-20T00:30:49.594Z,98637.84
2023-04-20T00:33:16.460Z,98630.97
2023-04-20T00:35:43.217Z,98630.09
2023-04-20T00:38:09.739Z,98632.66
2023-04-20T00:40:36.408Z,98636.13
2023-04-20T00:43:13.341Z,98636.13
2023-04-20T00:45:40.110Z,98631.75
2023-04-20T00:48:07.743Z,98624.81
2023-04-20T00:50:35.200Z,98628.28
2023-04-20T00:53:03.020Z,98625.69
2023-04-20T00:55:30.927Z,98622.22
2023-04-20T00:57:58.466Z,98619.66
2023-04-20T01:00:26.649Z,98607.47
2023-04-20T01:02:53.393Z,98618.75
2023-04-20T01:05:21.840Z,98615.31
2023-04-20T01:07:49.783Z,98617.06
2023-04-20T01:10:16.688Z,98616.94
2023-04-20T01:12:43.283Z,98617.81
2023-04-20T01:15:10.735Z,98612.59
2023-04-20T01:17:40.808Z,98611.75
2023-04-20T01:20:12.579Z,98610.00
2023-04-20T01:22:50.554Z,98596.13
2023-04-20T01:25:18.592Z,98603.97
2023-04-20T01:27:45.281Z,98604.81
2023-04-20T01:30:12.885Z,98590.91
2023-04-20T01:32:40.072Z,98596.94
2023-04-20T01:35:08.653Z,98599.53
2023-04-20T01:37:35.630Z,98597.84
2023-04-20T01:40:03.553Z,98596.06
2023-04-20T01:42:30.310Z,98594.31
2023-04-20T01:44:57.013Z,98583.06
2023-04-20T01:47:23.840Z,98582.19
2023-04-20T01:49:50.506Z,98575.25
2023-04-20T01:52:17.122Z,98582.16
2023-04-20T01:54:43.788Z,98582.19
2023-04-20T01:57:10.477Z,98582.16
2023-04-20T01:59:37.086Z,98576.97
2023-04-20T02:02:04.009Z,98582.09
2023-04-20T02:04:31.223Z,98576.91
2023-04-20T02:06:58.077Z,98576.91
2023-04-20T02:09:24.710Z,98573.44
2023-04-20T02:11:51.519Z,98564.78
2023-04-20T02:14:18.174Z,98575.19
2023-04-20T02:16:45.092Z,98569.13
2023-04-20T02:19:11.727Z,98571.75
2023-04-20T02:21:38.371Z,98568.28
2023-04-20T02:24:06.495Z,98570.94
2023-04-20T02:26:33.076Z,98572.66
2023-04-20T02:28:59.666Z,98574.41
2023-04-20T02:31:26.379Z,98569.97
2023-04-20T02:33:53.203Z,98571.75
2023-04-20T02:36:19.781Z,98575.25
2023-04-20T02:38:46.468Z,98584.78
2023-04-20T02:41:13.069Z,98577.84
2023-04-20T02:43:40.284Z,98572.63
2023-04-20T02:46:07.836Z,98569.16
2023-04-20T02:48:34.525Z,98573.50
2023-04-20T02:51:01.372Z,98571.72
2023-04-20T02:53:27.995Z,98572.66
2023-04-20T02:55:54.634Z,98572.63
2023-04-20T02:58:21.238Z,98577.81
2023-04-20T03:00:47.896Z,98571.72
2023-04-20T03:03:15.538Z,98574.34
2023-04-20T03:05:42.562Z,98565.69
2023-04-20T03:08:09.273Z,98573.53
2023-04-20T03:10:36.000Z,98571.75
2023-04-20T03:13:02.573Z,98573.50
2023-04-20T03:15:29.177Z,98576.09
2023-04-20T03:17:55.843Z,98578.69
2023-04-20T03:20:22.437Z,98577.78
2023-04-20T03:22:49.046Z,98583.84
2023-04-20T03:25:16.381Z,98577.72
2023-04-20T03:27:43.043Z,98584.69
2023-04-20T03:30:10.114Z,98579.50
2023-04-20T03:32:36.708Z,98587.31
2023-04-20T03:35:03.324Z,98578.59
2023-04-20T03:37:30.111Z,98578.63
2023-04-20T03:39:56.743Z,98576.84
2023-04-20T03:42:23.740Z,98571.66
2023-04-20T03:44:50.433Z,98573.41
2023-04-20T03:47:17.063Z,98576.00
2023-04-20T03:49:43.669Z,98575.13
2023-04-20T03:52:10.316Z,98569.94
2023-04-20T03:54:37.090Z,98572.56
2023-04-20T03:57:04.006Z,98578.69
2023-04-20T03:59:30.796Z,98572.56
2023-04-20T04:01:58.568Z,98562.19
2023-04-20T04:04:25.564Z,98563.09
2023-04-20T04:06:52.326Z,98564.88
2023-04-20T04:09:19.286Z,98557.06
2023-04-20T04:11:46.101Z,98558.75
2023-04-20T04:14:12.686Z,98566.56
2023-04-20T04:16:39.572Z,98568.28
2023-04-20T04:19:06.237Z,98566.59
2023-04-20T04:21:32.838Z,98576.13
2023-04-20T04:23:59.621Z,98566.63
2023-04-20T04:26:26.887Z,98573.56
2023-04-20T04:28:53.765Z,98577.03
2023-04-20T04:31:21.861Z,98580.50
2023-04-20T04:33:49.781Z,98581.38
2023-04-20T04:36:16.758Z,98580.50
2023-04-20T04:38:47.122Z,98578.78
2023-04-20T04:41:14.158Z,98580.50
2023-04-20T04:43:41.857Z,98575.34
2023-04-20T04:46:15.597Z,98581.41
2023-04-20T04:48:42.620Z,98575.34
2023-04-20T04:51:09.810Z,98574.50
2023-04-20T04:53:37.206Z,98577.13
2023-04-20T04:56:04.906Z,98573.66
2023-04-20T04:58:31.638Z,98577.13
2023-04-20T05:00:58.465Z,98580.63
2023-04-20T05:03:25.342Z,98578.00
2023-04-20T05:05:52.222Z,98584.09
2023-04-20T05:08:18.933Z,98578.00
2023-04-20T05:10:45.671Z,98584.91
2023-04-20T05:13:12.286Z,98586.59
2023-04-20T05:15:39.028Z,98582.34
2023-04-20T05:18:06.057Z,98585.81
2023-04-20T05:20:32.844Z,98585.81
2023-04-20T05:22:59.568Z,98593.63
2023-04-20T05:25:26.352Z,98590.19
2023-04-20T05:27:53.190Z,98596.22
2023-04-20T05:30:21.902Z,98592.78
2023-04-20T05:32:51.439Z,98596.28
2023-04-20T05:35:18.939Z,98604.13
2023-04-20T05:37:45.889Z,98599.78
2023-04-20T05:40:12.703Z,98603.25
2023-04-20T05:42:39.623Z,98605.03
2023-04-20T05:45:07.274Z,98608.50
2023-04-20T05:47:34.200Z,98598.94
2023-04-20T05:50:01.029Z,98608.53
2023-04-20T05:52:27.839Z,98612.00
2023-04-20T05:54:54.641Z,98611.13
2023-04-20T05:57:23.260Z,98613.72
2023-04-20T05:59:50.137Z,98611.13
2023-04-20T06:02:16.891Z,98606.81
2023-04-20T06:04:44.358Z,98618.06
2023-04-20T06:07:11.264Z,98620.69
2023-04-20T06:09:38.010Z,98612.88
2023-04-20T06:12:05.120Z,98610.28
2023-04-20T06:14:31.840Z,98621.56
2023-04-20T06:16:58.612Z,98620.72
2023-04-20T06:19:25.232Z,98623.31
2023-04-20T06:21:52.042Z,98628.50
2023-04-20T06:24:18.747Z,98625.91
2023-04-20T06:26:45.523Z,98625.03
2023-04-20T06:29:12.206Z,98625.06
2023-04-20T06:31:38.906Z,98632.88
2023-04-20T06:34:05.652Z,98625.94
2023-04-20T06:36:32.832Z,98621.63
2023-04-20T06:38:59.431Z,98631.16
2023-04-20T06:41:26.063Z,98627.69
2023-04-20T06:43:52.839Z,98633.75
2023-04-20T06:46:19.476Z,98631.16
2023-04-20T06:48:46.459Z,98644.19
2023-04-20T06:51:14.239Z,98648.50
2023-04-20T06:53:40.958Z,98643.31
2023-04-20T06:56:07.929Z,98648.53
2023-04-20T06:58:34.455Z,98643.31
2023-04-20T07:01:01.994Z,98652.00
2023-04-20T07:03:29.031Z,98652.00
2023-04-20T07:05:55.794Z,98652.88
2023-04-20T07:08:22.763Z,98643.31
2023-04-20T07:10:49.542Z,98652.00
2023-04-20T07:13:16.662Z,98640.72
2023-04-20T07:15:45.508Z,98644.19
2023-04-20T07:18:12.705Z,98641.56
2023-04-20T07:20:39.610Z,98637.16
2023-04-20T07:23:06.753Z,98633.69
2023-04-20T07:25:33.471Z,98632.75
2023-04-20T07:28:00.455Z,98632.75
2023-04-20T07:30:27.318Z,98637.03
2023-04-20T07:32:54.115Z,98634.38
2023-04-20T07:35:21.065Z,98630.88
2023-04-20T07:37:48.006Z,98628.25
2023-04-20T07:40:14.864Z,98627.38
2023-04-20T07:42:41.747Z,98628.38
2023-04-20T07:45:10.320Z,98628.31
2023-04-20T07:47:37.851Z,98636.19
2023-04-20T07:50:06.147Z,98635.34
2023-04-20T07:52:33.243Z,98635.34
2023-04-20T07:55:00.256Z,98644.97
2023-04-20T07:57:27.368Z,98648.44
2023-04-20T07:59:54.331Z,98646.69
2023-04-20T08:02:21.248Z,98649.25
2023-04-20T08:04:50.013Z,98648.34
2023-04-20T08:07:16.907Z,98648.38
2023-04-20T08:09:43.744Z,98643.09
2023-04-20T08:12:10.372Z,98637.97
2023-04-20T08:14:38.411Z,98648.34
2023-04-20T08:17:05.231Z,98647.50
2023-04-20T08:19:31.955Z,98640.53
2023-04-20T08:21:59.717Z,98640.56
2023-04-20T08:24:27.355Z,98643.16
2023-04-20T08:26:54.001Z,98649.22
2023-04-20T08:29:20.799Z,98650.88
2023-04-20T08:31:50.644Z,98649.88
2023-04-20T08:34:18.169Z,98641.13
2023-04-20T08:36:45.377Z,98646.41
2023-04-20T08:39:14.744Z,98645.50
2023-04-20T08:41:41.813Z,98637.63
2023-04-20T08:44:08.576Z,98632.28
2023-04-20T08:46:35.854Z,98644.28
2023-04-20T08:49:03.748Z,98628.59
2023-04-20T08:51:32.767Z,98632.13
2023-04-20T08:54:06.408Z,98635.41
2023-04-20T08:56:38.191Z,98633.59
2023-04-20T08:59:05.871Z,98637.28
2023-04-20T09:01:35.947Z,98642.66
2023-04-20T09:04:03.858Z,98643.66
2023-04-20T09:06:31.686Z,98626.97
2023-04-20T09:08:58.517Z,98623.81
2023-04-20T09:11:27.448Z,98633.44
2023-04-20T09:14:00.215Z,98633.50
2023-04-20T09:16:27.328Z,98628.44
2023-04-20T09:18:56.330Z,98641.47
2023-04-20T09:21:25.103Z,98643.72
2023-04-20T09:23:58.772Z,98643.50
2023-04-20T09:26:26.388Z,98634.72
2023-04-20T09:28:53.428Z,98634.78
2023-04-20T09:31:22.328Z,98636.50
2023-04-20T09:34:03.119Z,98633.88
2023-04-20T09:36:37.797Z,98643.34
2023-04-20T09:39:12.729Z,98641.84
2023-04-20T09:41:41.214Z,98639.00
2023-04-20T09:44:09.512Z,98627.47
2023-04-20T09:46:38.534Z,98624.78
2023-04-20T09:49:07.832Z,98628.31
2023-04-20T09:51:37.130Z,98636.22
2023-04-20T09:54:05.668Z,98625.84
2023-04-20T09:56:33.648Z,98635.91
2023-04-20T09:59:01.608Z,98631.66
2023-04-20T10:01:34.882Z,98636.00
2023-04-20T10:04:04.125Z,98625.53
2023-04-20T10:06:33.635Z,98628.22
2023-04-20T10:09:05.793Z,98621.31
2023-04-20T10:11:49.643Z,98623.50
2023-04-20T10:14:20.284Z,98618.00
2023-04-20T10:16:59.877Z,98623.16
2023-04-20T10:19:40.588Z,98613.25
2023-04-20T10:22:09.064Z,98609.63
2023-04-20T10:24:38.510Z,98615.75
2023-04-20T10:27:17.171Z,98615.25
2023-04-20T10:29:43.894Z,98617.31
2023-04-20T10:32:21.807Z,98612.25
2023-04-20T10:34:48.555Z,98620.91
2023-04-20T10:37:15.497Z,98611.44
2023-04-20T10:39:46.946Z,98606.97
2023-04-20T10:42:16.782Z,98601.69
2023-04-20T10:44:54.614Z,98607.72
2023-04-20T10:47:32.168Z,98606.84
2023-04-20T10:50:12.551Z,98600.47
2023-04-20T10:52:42.095Z,98598.53
2023-04-20T10:55:23.207Z,98595.25
2023-04-20T10:57:50.822Z,98591.59
2023-04-20T11:00:23.300Z,98583.47
2023-04-20T11:02:51.877Z,98581.97
2023-04-20T11:05:20.728Z,98584.03
2023-04-20T11:07:54.556Z,98582.06
2023-04-20T11:10:24.135Z,98577.41
2023-04-20T11:12:52.288Z,98580.31
2023-04-20T11:15:19.118Z,98570.31
2023-04-20T11:17:47.091Z,98560.59
2023-04-20T11:20:17.202Z,98561.31
2023-04-20T11:22:44.482Z,98555.63
2023-04-20T11:25:12.757Z,98565.41
2023-04-20T11:27:41.079Z,98550.28
2023-04-20T11:30:10.133Z,98548.75
2023-04-20T11:32:38.657Z,98550.19
2023-04-20T11:35:08.292Z,98538.13
2023-04-20T11:37:51.844Z,98540.91
2023-04-20T11:40:18.644Z,98531.78
2023-04-20T11:42:46.563Z,98535.13
2023-04-20T11:45:13.273Z,98537.72
2023-04-20T11:47:41.914Z,98545.41
2023-04-20T11:50:10.520Z,98532.00
2023-04-20T11:52:37.590Z,98534.97
2023-04-20T11:55:04.846Z,98548.28
2023-04-20T11:57:31.516Z,98550.97
2023-04-20T11:59:59.138Z,98545.72
2023-04-20T12:02:25.935Z,98547.94
2023-04-20T12:04:52.941Z,98555.19
2023-04-20T12:07:19.693Z,98548.66
2023-04-20T12:09:46.574Z,98554.22
2023-04-20T12:12:13.342Z,98553.94
2023-04-20T12:14:40.178Z,98563.56
2023-04-20T12:17:07.083Z,98560.16
2023-04-20T12:19:33.788Z,98560.13
2023-04-20T12:22:00.691Z,98561.06
2023-04-20T12:24:27.360Z,98563.00
2023-04-20T12:26:54.818Z,98559.44
2023-04-20T12:29:22.204Z,98554.88
2023-04-20T12:31:49.089Z,98554.16
2023-04-20T12:34:16.359Z,98550.63
2023-04-20T12:36:43.172Z,98552.59
2023-04-20T12:39:12.099Z,98546.66
2023-04-20T12:41:39.060Z,98542.19
2023-04-20T12:44:07.633Z,98539.31
2023-04-20T12:46:35.531Z,98531.41
2023-04-20T12:49:02.409Z,98536.47
2023-04-20T12:51:29.138Z,98512.38
2023-04-20T12:53:55.703Z,98511.00
2023-04-20T12:56:22.400Z,98502.38
2023-04-20T12:58:49.096Z,98502.75
2023-04-20T13:01:16.239Z,98504.91
2023-04-20T13:03:43.117Z,98498.06
2023-04-20T13:06:13.678Z,98501.28
2023-04-20T13:08:41.455Z,98489.81
2023-04-20T13:11:12.265Z,98488.31
2023-04-20T13:13:38.969Z,98491.41
2023-04-20T13:16:06.340Z,98487.75
2023-04-20T13:18:34.068Z,98497.25
2023-04-20T13:21:01.070Z,98486.94
2023-04-20T13:23:27.690Z,98494.06
2023-04-20T13:25:54.481Z,98483.41
2023-04-20T13:28:21.229Z,98505.41
2023-04-20T13:30:48.296Z,98499.47
2023-04-20T13:33:15.225Z,98502.91
2023-04-20T13:35:43.095Z,98488.88
2023-04-20T13:38:09.784Z,98497.81
2023-04-20T13:40:36.362Z,98493.31
2023-04-20T13:43:03.119Z,98493.91
2023-04-20T13:45:30.156Z,98486.06
2023-04-20T13:47:57.429Z,98480.78
2023-04-20T13:50:24.247Z,98479.72
2023-04-20T13:52:51.048Z,98479.72
2023-04-20T13:55:20.646Z,98467.97
2023-04-20T13:57:47.714Z,98458.81
2023-04-20T14:00:14.905Z,98437.91
2023-04-20T14:02:41.767Z,98443.66
2023-04-20T14:05:09.960Z,98457.53
2023-04-20T14:07:36.592Z,98454.66
2023-04-20T14:10:03.382Z,98456.56
2023-04-20T14:12:30.447Z,98467.16
2023-04-20T14:14:58.582Z,98471.03
2023-04-20T14:17:25.721Z,98463.88
2023-04-20T14:19:53.324Z,98465.63
2023-04-20T14:22:19.857Z,98471.72
2023-04-20T14:24:47.918Z,98465.44
2023-04-20T14:27:15.098Z,98462.88
2023-04-20T14:29:41.929Z,98460.25
2023-04-20T14:32:08.549Z,98462.25
2023-04-20T14:34:35.333Z,98461.25
2023-04-20T14:37:02.044Z,98463.94
2023-04-20T14:39:28.705Z,98459.41
2023-04-20T14:41:55.465Z,98468.53
2023-04-20T14:44:22.260Z,98452.03
2023-04-20T14:46:48.933Z,98446.16
2023-04-20T14:49:15.775Z,98453.19
2023-04-20T14:51:42.686Z,98458.44
2023-04-20T14:54:09.543Z,98458.44
2023-04-20T14:56:36.404Z,98462.53
2023-04-20T14:59:03.631Z,98456.94
2023-04-20T15:01:30.509Z,98465.16
2023-04-20T15:03:57.365Z,98465.13
2023-04-20T15:06:24.475Z,98472.16
2023-04-20T15:08:54.764Z,98460.63
2023-04-20T15:11:21.500Z,98471.13
2023-04-20T15:13:49.627Z,98468.03
2023-04-20T15:16:16.526Z,98464.53
2023-04-20T15:18:43.578Z,98462.19
2023-04-20T15:21:11.173Z,98454.47
2023-04-20T15:23:38.106Z,98453.75
2023-04-20T15:26:05.492Z,98437.84
2023-04-20T15:28:32.183Z,98447.59
2023-04-20T15:30:58.983Z,98446.00
2023-04-20T15:33:25.669Z,98447.88
2023-04-20T15:35:52.322Z,98448.94
2023-04-20T15:38:19.063Z,98457.69
2023-04-20T15:40:47.105Z,98455.03
2023-04-20T15:43:13.715Z,98441.16
2023-04-20T15:45:41.298Z,98446.50
2023-04-20T15:48:09.589Z,98448.19
2023-04-20T15:50:36.435Z,98451.41
2023-04-20T15:53:03.502Z,98450.66
2023-04-20T15:55:34.673Z,98441.16
2023-04-20T15:58:01.690Z,98448.16
2023-04-20T16:00:28.429Z,98449.97
2023-04-20T16:02:55.452Z,98445.59
2023-04-20T16:05:23.318Z,98444.78
2023-04-20T16:07:49.972Z,98444.78
2023-04-20T16:10:16.827Z,98448.34
2023-04-20T16:12:43.656Z,98442.22
2023-04-20T16:15:10.702Z,98455.19
2023-04-20T16:17:37.553Z,98454.44
2023-04-20T16:20:05.523Z,98459.69
2023-04-20T16:22:32.432Z,98467.63
2023-04-20T16:24:59.027Z,98461.34
2023-04-20T16:27:26.896Z,98455.38
2023-04-20T16:29:53.767Z,98457.28
2023-04-20T16:32:20.671Z,98453.66
2023-04-20T16:34:47.456Z,98460.53
2023-04-20T16:37:14.218Z,98461.44
2023-04-20T16:39:40.950Z,98465.97
2023-04-20T16:42:07.761Z,98465.06
2023-04-20T16:44:34.480Z,98459.63
2023-04-20T16:47:02.150Z,98462.34
2023-04-20T16:49:29.152Z,98461.53
2023-04-20T16:51:56.456Z,98463.22
2023-04-20T16:54:23.271Z,98461.56
2023-04-20T16:56:50.016Z,98477.22
2023-04-20T16:59:17.102Z,98462.53
2023-04-20T17:01:44.114Z,98462.53
2023-04-20T17:04:11.563Z,98463.19
2023-04-20T17:06:38.523Z,98465.66
2023-04-20T17:09:07.349Z,98462.28
2023-04-20T17:11:38.319Z,98460.56
2023-04-20T17:14:05.114Z,98468.34
2023-04-20T17:16:32.098Z,98461.31
2023-04-20T17:18:58.832Z,98465.63
2023-04-20T17:21:27.029Z,98477.91
2023-04-20T17:23:53.759Z,98462.19
2023-04-20T17:26:20.975Z,98464.00
2023-04-20T17:28:47.847Z,98473.56
2023-04-20T17:31:14.866Z,98473.53
2023-04-20T17:33:41.703Z,98472.69
2023-04-20T17:36:08.508Z,98469.97
2023-04-20T17:38:36.830Z,98474.34
2023-04-20T17:41:03.837Z,98467.25
2023-04-20T17:43:30.962Z,98463.88
2023-04-20T17:46:01.033Z,98466.47
2023-04-20T17:48:27.708Z,98463.03
2023-04-20T17:50:55.388Z,98465.53
2023-04-20T17:53:23.015Z,98472.66
2023-04-20T17:55:49.708Z,98469.91
2023-04-20T17:58:17.673Z,98474.34
2023-04-20T18:00:44.675Z,98473.53
2023-04-20T18:03:11.821Z,98476.13
2023-04-20T18:05:38.592Z,98476.97
2023-04-20T18:08:06.004Z,98477.75
2023-04-20T18:10:34.190Z,98476.94
2023-04-20T18:13:01.230Z,98478.56
2023-04-20T18:15:28.067Z,98477.84
2023-04-20T18:17:54.752Z,98476.22
2023-04-20T18:20:21.572Z,98476.13
2023-04-20T18:22:50.357Z,98484.84
2023-04-20T18:25:19.579Z,98487.44
2023-04-20T18:27:46.442Z,98498.84
2023-04-20T18:30:14.075Z,98492.69
2023-04-20T18:32:40.996Z,98502.16
2023-04-20T18:35:08.758Z,98488.19
2023-04-20T18:37:35.600Z,98495.97
2023-04-20T18:40:02.343Z,98498.72
2023-04-20T18:42:29.042Z,98497.91
2023-04-20T18:44:56.201Z,98493.41
2023-04-20T18:47:24.666Z,98496.00
2023-04-20T18:49:51.283Z,98493.16
2023-04-20T18:52:19.352Z,98493.38
2023-04-20T18:54:47.217Z,98495.13
2023-04-20T18:57:14.004Z,98497.88
2023-04-20T18:59:40.700Z,98489.97
2023-04-20T19:02:07.385Z,98496.78
2023-04-20T19:04:36.442Z,98487.06
2023-04-20T19:07:03.223Z,98491.56
2023-04-20T19:09:30.150Z,98496.75
2023-04-20T19:11:57.289Z,98491.63
2023-04-20T19:14:24.003Z,98481.94
2023-04-20T19:16:50.980Z,98475.03
2023-04-20T19:19:17.601Z,98475.00
2023-04-20T19:21:44.288Z,98481.22
2023-04-20T19:24:10.997Z,98475.06
2023-04-20T19:26:37.675Z,98477.72
2023-04-20T19:29:04.425Z,98474.19
2023-04-20T19:31:36.860Z,98470.69
2023-04-20T19:34:04.566Z,98474.25
2023-04-20T19:36:32.220Z,98469.81
2023-04-20T19:38:59.505Z,98473.28
2023-04-20T19:41:26.457Z,98479.31
2023-04-20T19:43:53.449Z,98469.03
2023-04-20T19:46:20.514Z,98463.72
2023-04-20T19:48:47.237Z,98468.97
2023-04-20T19:51:13.868Z,98477.56
2023-04-20T19:53:40.693Z,98474.91
2023-04-20T19:56:07.158Z,98474.06
2023-04-20T19:58:33.811Z,98471.50
2023-04-20T20:01:00.503Z,98470.81
2023-04-20T20:03:27.658Z,98463.78
2023-04-20T20:05:54.538Z,98468.19
2023-04-20T20:08:21.291Z,98474.19
2023-04-20T20:10:47.949Z,98473.22
2023-04-20T20:13:14.784Z,98468.94
2023-04-20T20:15:42.149Z,98464.41
2023-04-20T20:18:10.702Z,98463.72
2023-04-20T20:20:38.259Z,98463.56
2023-04-20T20:23:05.113Z,98456.63
2023-04-20T20:25:32.835Z,98463.72
2023-04-20T20:28:01.328Z,98468.94
2023-04-20T20:30:27.962Z,98467.16
2023-04-20T20:32:54.678Z,98462.81
2023-04-20T20:35:21.532Z,98474.13
2023-04-20T20:37:48.184Z,98471.50
2023-04-20T20:40:15.544Z,98466.31
2023-04-20T20:42:42.994Z,98471.41
2023-04-20T20:45:13.338Z,98464.41
2023-04-20T20:47:41.294Z,98465.31
2023-04-20T20:50:09.396Z,98474.06
2023-04-20T20:52:36.341Z,98465.31
2023-04-20T20:55:04.457Z,98467.84
2023-04-20T20:57:31.502Z,98468.81
2023-04-20T20:59:58.243Z,98457.38
2023-04-20T21:02:25.193Z,98455.66
2023-04-20T21:04:52.177Z,98454.91
2023-04-20T21:07:18.936Z,98467.19
2023-04-20T21:09:45.778Z,98461.88
2023-04-20T21:12:12.424Z,98452.25
2023-04-20T21:14:39.127Z,98449.66
2023-04-20T21:17:05.932Z,98445.31
2023-04-20T21:19:32.626Z,98450.53
2023-04-20T21:21:59.283Z,98447.88
2023-04-20T21:24:26.014Z,98450.69
2023-04-20T21:26:52.908Z,98455.03
2023-04-20T21:29:19.967Z,98450.69
2023-04-20T21:31:46.954Z,98449.88
2023-04-20T21:34:13.859Z,98447.19
2023-04-20T21:36:40.859Z,98441.13
2023-04-20T21:39:07.568Z,98448.34
2023-04-20T21:41:34.170Z,98448.34
2023-04-20T21:44:02.633Z,98449.34
2023-04-20T21:46:29.412Z,98447.72
2023-04-20T21:48:56.362Z,98453.81
2023-04-20T21:51:23.111Z,98451.09
2023-04-20T21:53:49.905Z,98439.13
2023-04-20T21:56:16.776Z,98446.19
2023-04-20T21:58:43.445Z,98445.38
2023-04-20T22:01:10.233Z,98443.69
2023-04-20T22:03:37.919Z,98439.34
2023-04-20T22:06:05.042Z,98443.75
2023-04-20T22:08:32.219Z,98440.34
2023-04-20T22:10:58.934Z,98440.41
2023-04-20T22:13:25.682Z,98444.00
2023-04-20T22:15:52.922Z,98441.47
2023-04-20T22:18:19.797Z,98440.66
2023-04-20T22:20:46.522Z,98451.22
2023-04-20T22:23:13.282Z,98457.34
2023-04-20T22:25:40.831Z,98458.28
2023-04-20T22:28:07.550Z,98456.66
2023-04-20T22:30:34.626Z,98459.25
2023-04-20T22:33:01.675Z,98454.94
2023-04-20T22:35:28.479Z,98455.88
2023-04-20T22:37:55.502Z,98456.78
2023-04-20T22:40:23.041Z,98450.69
2023-04-20T22:42:49.966Z,98450.53
2023-04-20T22:45:19.765Z,98446.22
2023-04-20T22:47:49.806Z,98443.69
2023-04-20T22:50:16.609Z,98447.00
2023-04-20T22:52:43.234Z,98448.78
2023-04-20T22:55:12.060Z,98440.03
2023-04-20T22:57:39.235Z,98439.22
2023-04-20T23:00:13.999Z,98437.50
2023-04-20T23:02:41.166Z,98437.53
2023-04-20T23:05:08.345Z,98434.97
2023-04-20T23:07:35.220Z,98434.97
2023-04-20T23:10:02.788Z,98428.88
2023-04-20T23:12:29.701Z,98434.13
2023-04-20T23:14:56.918Z,98433.31
2023-04-20T23:17:23.801Z,98435.84
2023-04-20T23:19:51.134Z,98428.88
2023-04-20T23:22:17.925Z,98428.81
2023-04-20T23:24:44.814Z,98424.44
2023-04-20T23:27:11.490Z,98427.97
2023-04-20T23:29:38.090Z,98428.00
2023-04-20T23:32:05.200Z,98425.41
2023-04-20T23:34:32.006Z,98420.13
2023-04-20T23:36:58.786Z,98418.38
2023-04-20T23:39:25.560Z,98408.88
2023-04-20T23:41:52.133Z,98402.00
2023-04-20T23:44:18.823Z,98404.63
2023-04-20T23:46:45.487Z,98403.78
2023-04-20T23:49:12.043Z,98402.94
2023-04-20T23:51:38.675Z,98409.97
2023-04-20T23:54:05.442Z,98413.56
2023-04-20T23:56:32.035Z,98404.97
2023-04-20T23:58:59.363Z,98396.34
